sensor_id;sensor_type;location;lat;lon;timestamp;P1;durP1;ratioP1;P2;durP2;ratioP2
63346;SDS011;49472;49.880;8.650;2023-01-30T00:02:02;37.20;;;27.43;;
63346;SDS011;49472;49.880;8.650;2023-01-30T00:04:27;37.07;;;27.60;;
63346;SDS011;49472;49.880;8.650;2023-01-30T00:06:52;35.83;;;27.43;;
63346;SDS011;49472;49.880;8.650;2023-01-30T00:09:18;33.97;;;27.70;;
63346;SDS011;49472;49.880;8.650;2023-01-30T00:11:43;38.07;;;27.40;;
63346;SDS011;49472;49.880;8.650;2023-01-30T00:14:08;40.00;;;28.07;;
63346;SDS011;49472;49.880;8.650;2023-01-30T00:16:34;38.77;;;30.03;;
63346;SDS011;49472;49.880;8.650;2023-01-30T00:18:59;37.33;;;27.10;;
63346;SDS011;49472;49.880;8.650;2023-01-30T00:21:24;37.67;;;28.50;;
63346;SDS011;49472;49.880;8.650;2023-01-30T00:23:50;37.50;;;27.37;;
63346;SDS011;49472;49.880;8.650;2023-01-30T00:26:15;33.37;;;26.17;;
63346;SDS011;49472;49.880;8.650;2023-01-30T00:28:40;36.17;;;27.50;;
63346;SDS011;49472;49.880;8.650;2023-01-30T00:31:06;35.80;;;27.63;;
63346;SDS011;49472;49.880;8.650;2023-01-30T00:33:32;36.90;;;28.20;;
63346;SDS011;49472;49.880;8.650;2023-01-30T00:35:57;36.70;;;26.30;;
63346;SDS011;49472;49.880;8.650;2023-01-30T00:38:25;36.07;;;26.93;;
63346;SDS011;49472;49.880;8.650;2023-01-30T00:40:50;33.97;;;25.93;;
63346;SDS011;49472;49.880;8.650;2023-01-30T00:43:17;39.53;;;26.67;;
63346;SDS011;49472;49.880;8.650;2023-01-30T00:46:02;37.30;;;25.17;;
63346;SDS011;49472;49.880;8.650;2023-01-30T00:48:51;34.90;;;26.20;;
63346;SDS011;49472;49.880;8.650;2023-01-30T00:51:17;34.47;;;26.77;;
63346;SDS011;49472;49.880;8.650;2023-01-30T00:53:42;35.97;;;27.13;;
63346;SDS011;49472;49.880;8.650;2023-01-30T00:56:07;42.30;;;26.17;;
63346;SDS011;49472;49.880;8.650;2023-01-30T00:58:32;35.63;;;25.93;;
63346;SDS011;49472;49.880;8.650;2023-01-30T01:00:58;35.77;;;25.70;;
63346;SDS011;49472;49.880;8.650;2023-01-30T01:03:23;35.03;;;25.30;;
63346;SDS011;49472;49.880;8.650;2023-01-30T01:05:48;33.20;;;25.80;;
63346;SDS011;49472;49.880;8.650;2023-01-30T01:08:14;36.40;;;25.77;;
63346;SDS011;49472;49.880;8.650;2023-01-30T01:10:39;38.17;;;25.43;;
63346;SDS011;49472;49.880;8.650;2023-01-30T01:13:04;33.27;;;25.10;;
63346;SDS011;49472;49.880;8.650;2023-01-30T01:15:31;34.13;;;24.77;;
63346;SDS011;49472;49.880;8.650;2023-01-30T01:17:56;33.87;;;25.07;;
63346;SDS011;49472;49.880;8.650;2023-01-30T01:20:22;35.90;;;26.23;;
63346;SDS011;49472;49.880;8.650;2023-01-30T01:22:47;29.00;;;22.70;;
63346;SDS011;49472;49.880;8.650;2023-01-30T01:25:17;31.93;;;23.27;;
63346;SDS011;49472;49.880;8.650;2023-01-30T01:27:43;35.47;;;25.23;;
63346;SDS011;49472;49.880;8.650;2023-01-30T01:30:09;34.60;;;25.37;;
63346;SDS011;49472;49.880;8.650;2023-01-30T01:32:36;34.20;;;25.87;;
63346;SDS011;49472;49.880;8.650;2023-01-30T01:35:01;34.57;;;23.77;;
63346;SDS011;49472;49.880;8.650;2023-01-30T01:37:26;31.73;;;25.13;;
63346;SDS011;49472;49.880;8.650;2023-01-30T01:39:52;30.77;;;23.47;;
63346;SDS011;49472;49.880;8.650;2023-01-30T01:42:36;35.83;;;23.20;;
63346;SDS011;49472;49.880;8.650;2023-01-30T01:45:09;36.77;;;23.63;;
63346;SDS011;49472;49.880;8.650;2023-01-30T01:48:38;34.47;;;23.23;;
63346;SDS011;49472;49.880;8.650;2023-01-30T01:50:43;32.50;;;23.40;;
63346;SDS011;49472;49.880;8.650;2023-01-30T01:53:14;35.30;;;25.10;;
63346;SDS011;49472;49.880;8.650;2023-01-30T01:55:42;35.87;;;25.17;;
63346;SDS011;49472;49.880;8.650;2023-01-30T01:58:12;36.97;;;25.20;;
63346;SDS011;49472;49.880;8.650;2023-01-30T02:00:49;32.70;;;23.70;;
63346;SDS011;49472;49.880;8.650;2023-01-30T02:03:16;32.20;;;24.10;;
63346;SDS011;49472;49.880;8.650;2023-01-30T02:05:46;29.63;;;22.43;;
63346;SDS011;49472;49.880;8.650;2023-01-30T02:08:15;34.00;;;23.60;;
63346;SDS011;49472;49.880;8.650;2023-01-30T02:10:52;33.20;;;24.27;;
63346;SDS011;49472;49.880;8.650;2023-01-30T02:13:23;31.33;;;22.13;;
63346;SDS011;49472;49.880;8.650;2023-01-30T02:15:49;35.70;;;24.90;;
63346;SDS011;49472;49.880;8.650;2023-01-30T02:18:15;30.67;;;23.37;;
63346;SDS011;49472;49.880;8.650;2023-01-30T02:23:30;31.20;;;23.43;;
63346;SDS011;49472;49.880;8.650;2023-01-30T02:39:25;33.03;;;24.50;;
63346;SDS011;49472;49.880;8.650;2023-01-30T02:47:50;30.47;;;22.43;;
63346;SDS011;49472;49.880;8.650;2023-01-30T02:50:22;29.77;;;21.67;;
63346;SDS011;49472;49.880;8.650;2023-01-30T02:52:51;29.60;;;21.80;;
63346;SDS011;49472;49.880;8.650;2023-01-30T02:55:18;22.60;;;20.20;;
63346;SDS011;49472;49.880;8.650;2023-01-30T02:57:45;33.03;;;22.80;;
63346;SDS011;49472;49.880;8.650;2023-01-30T03:00:11;33.50;;;22.83;;
63346;SDS011;49472;49.880;8.650;2023-01-30T03:11:07;26.10;;;20.17;;
63346;SDS011;49472;49.880;8.650;2023-01-30T03:16:25;28.30;;;21.13;;
63346;SDS011;49472;49.880;8.650;2023-01-30T03:18:58;35.13;;;23.07;;
63346;SDS011;49472;49.880;8.650;2023-01-30T03:21:25;28.57;;;20.93;;
63346;SDS011;49472;49.880;8.650;2023-01-30T03:23:50;26.67;;;21.27;;
63346;SDS011;49472;49.880;8.650;2023-01-30T03:26:25;31.97;;;23.50;;
63346;SDS011;49472;49.880;8.650;2023-01-30T03:28:54;28.10;;;21.60;;
63346;SDS011;49472;49.880;8.650;2023-01-30T03:31:20;30.77;;;21.00;;
63346;SDS011;49472;49.880;8.650;2023-01-30T03:33:46;28.63;;;21.10;;
63346;SDS011;49472;49.880;8.650;2023-01-30T03:36:11;28.43;;;22.07;;
63346;SDS011;49472;49.880;8.650;2023-01-30T03:38:37;27.20;;;22.33;;
63346;SDS011;49472;49.880;8.650;2023-01-30T03:41:03;31.30;;;22.93;;
63346;SDS011;49472;49.880;8.650;2023-01-30T03:43:29;36.77;;;21.63;;
63346;SDS011;49472;49.880;8.650;2023-01-30T03:45:55;35.77;;;24.47;;
63346;SDS011;49472;49.880;8.650;2023-01-30T03:48:20;33.30;;;24.63;;
63346;SDS011;49472;49.880;8.650;2023-01-30T03:50:46;30.50;;;21.67;;
63346;SDS011;49472;49.880;8.650;2023-01-30T03:53:11;31.13;;;23.13;;
63346;SDS011;49472;49.880;8.650;2023-01-30T03:55:36;29.40;;;23.00;;
63346;SDS011;49472;49.880;8.650;2023-01-30T03:58:03;28.83;;;21.07;;
63346;SDS011;49472;49.880;8.650;2023-01-30T04:00:28;32.23;;;22.93;;
63346;SDS011;49472;49.880;8.650;2023-01-30T04:02:53;33.93;;;24.17;;
63346;SDS011;49472;49.880;8.650;2023-01-30T04:05:21;35.87;;;22.20;;
63346;SDS011;49472;49.880;8.650;2023-01-30T04:07:46;32.70;;;22.80;;
63346;SDS011;49472;49.880;8.650;2023-01-30T04:10:11;35.30;;;24.77;;
63346;SDS011;49472;49.880;8.650;2023-01-30T04:12:39;32.57;;;22.53;;
63346;SDS011;49472;49.880;8.650;2023-01-30T04:15:06;37.90;;;24.87;;
63346;SDS011;49472;49.880;8.650;2023-01-30T04:17:31;29.77;;;21.60;;
63346;SDS011;49472;49.880;8.650;2023-01-30T04:19:57;41.93;;;24.33;;
63346;SDS011;49472;49.880;8.650;2023-01-30T04:22:22;39.73;;;24.87;;
63346;SDS011;49472;49.880;8.650;2023-01-30T04:24:47;33.67;;;22.80;;
63346;SDS011;49472;49.880;8.650;2023-01-30T04:27:12;39.00;;;24.77;;
63346;SDS011;49472;49.880;8.650;2023-01-30T04:29:38;35.80;;;23.97;;
63346;SDS011;49472;49.880;8.650;2023-01-30T04:32:03;36.57;;;23.67;;
63346;SDS011;49472;49.880;8.650;2023-01-30T04:34:29;25.10;;;19.73;;
63346;SDS011;49472;49.880;8.650;2023-01-30T04:36:54;35.47;;;23.67;;
63346;SDS011;49472;49.880;8.650;2023-01-30T04:39:19;35.33;;;22.60;;
63346;SDS011;49472;49.880;8.650;2023-01-30T04:41:44;31.80;;;22.00;;
63346;SDS011;49472;49.880;8.650;2023-01-30T04:44:10;36.50;;;24.67;;
63346;SDS011;49472;49.880;8.650;2023-01-30T04:46:35;33.70;;;23.77;;
63346;SDS011;49472;49.880;8.650;2023-01-30T04:49:00;29.40;;;22.50;;
63346;SDS011;49472;49.880;8.650;2023-01-30T04:51:25;37.07;;;22.90;;
63346;SDS011;49472;49.880;8.650;2023-01-30T04:53:51;36.20;;;25.60;;
63346;SDS011;49472;49.880;8.650;2023-01-30T04:56:16;33.93;;;24.20;;
63346;SDS011;49472;49.880;8.650;2023-01-30T04:58:41;30.00;;;22.50;;
63346;SDS011;49472;49.880;8.650;2023-01-30T05:01:20;30.77;;;22.13;;
63346;SDS011;49472;49.880;8.650;2023-01-30T05:03:53;27.20;;;20.73;;
63346;SDS011;49472;49.880;8.650;2023-01-30T05:06:19;37.97;;;24.33;;
63346;SDS011;49472;49.880;8.650;2023-01-30T05:08:48;39.70;;;22.90;;
63346;SDS011;49472;49.880;8.650;2023-01-30T05:11:15;33.70;;;22.97;;
63346;SDS011;49472;49.880;8.650;2023-01-30T05:13:40;33.50;;;24.73;;
63346;SDS011;49472;49.880;8.650;2023-01-30T05:16:07;45.03;;;27.50;;
63346;SDS011;49472;49.880;8.650;2023-01-30T05:18:33;30.80;;;21.37;;
63346;SDS011;49472;49.880;8.650;2023-01-30T05:21:05;38.33;;;25.77;;
63346;SDS011;49472;49.880;8.650;2023-01-30T05:23:32;36.50;;;22.87;;
63346;SDS011;49472;49.880;8.650;2023-01-30T05:25:57;35.70;;;25.67;;
63346;SDS011;49472;49.880;8.650;2023-01-30T05:28:22;36.33;;;24.30;;
63346;SDS011;49472;49.880;8.650;2023-01-30T05:30:48;38.30;;;25.03;;
63346;SDS011;49472;49.880;8.650;2023-01-30T05:33:13;36.33;;;22.30;;
63346;SDS011;49472;49.880;8.650;2023-01-30T05:35:38;35.60;;;21.87;;
63346;SDS011;49472;49.880;8.650;2023-01-30T05:38:10;35.03;;;23.77;;
63346;SDS011;49472;49.880;8.650;2023-01-30T05:40:35;32.77;;;23.10;;
63346;SDS011;49472;49.880;8.650;2023-01-30T05:43:01;38.00;;;24.27;;
63346;SDS011;49472;49.880;8.650;2023-01-30T05:45:26;32.63;;;21.23;;
63346;SDS011;49472;49.880;8.650;2023-01-30T05:47:51;33.47;;;23.47;;
63346;SDS011;49472;49.880;8.650;2023-01-30T05:50:17;38.97;;;25.87;;
63346;SDS011;49472;49.880;8.650;2023-01-30T05:52:42;41.63;;;25.57;;
63346;SDS011;49472;49.880;8.650;2023-01-30T05:55:07;41.47;;;26.30;;
63346;SDS011;49472;49.880;8.650;2023-01-30T05:57:33;32.67;;;22.13;;
63346;SDS011;49472;49.880;8.650;2023-01-30T05:59:58;34.83;;;22.90;;
63346;SDS011;49472;49.880;8.650;2023-01-30T06:02:24;40.90;;;24.00;;
63346;SDS011;49472;49.880;8.650;2023-01-30T06:04:49;41.43;;;25.40;;
63346;SDS011;49472;49.880;8.650;2023-01-30T06:07:14;37.40;;;26.20;;
63346;SDS011;49472;49.880;8.650;2023-01-30T06:09:40;38.77;;;25.93;;
63346;SDS011;49472;49.880;8.650;2023-01-30T06:12:05;34.90;;;24.70;;
63346;SDS011;49472;49.880;8.650;2023-01-30T06:14:31;29.00;;;21.13;;
63346;SDS011;49472;49.880;8.650;2023-01-30T06:16:56;35.67;;;23.57;;
63346;SDS011;49472;49.880;8.650;2023-01-30T06:19:21;30.60;;;22.43;;
63346;SDS011;49472;49.880;8.650;2023-01-30T06:21:46;45.37;;;27.70;;
63346;SDS011;49472;49.880;8.650;2023-01-30T06:24:12;37.53;;;26.50;;
63346;SDS011;49472;49.880;8.650;2023-01-30T06:26:37;42.80;;;28.60;;
63346;SDS011;49472;49.880;8.650;2023-01-30T06:29:02;40.43;;;27.50;;
63346;SDS011;49472;49.880;8.650;2023-01-30T06:31:28;45.27;;;25.13;;
63346;SDS011;49472;49.880;8.650;2023-01-30T06:33:53;38.90;;;24.57;;
63346;SDS011;49472;49.880;8.650;2023-01-30T06:36:18;41.77;;;27.27;;
63346;SDS011;49472;49.880;8.650;2023-01-30T06:38:43;39.93;;;26.63;;
63346;SDS011;49472;49.880;8.650;2023-01-30T06:41:10;42.87;;;25.50;;
63346;SDS011;49472;49.880;8.650;2023-01-30T06:43:35;37.17;;;23.63;;
63346;SDS011;49472;49.880;8.650;2023-01-30T06:46:00;33.17;;;24.60;;
63346;SDS011;49472;49.880;8.650;2023-01-30T06:48:26;36.10;;;24.80;;
63346;SDS011;49472;49.880;8.650;2023-01-30T06:50:51;34.73;;;25.50;;
63346;SDS011;49472;49.880;8.650;2023-01-30T06:53:16;31.13;;;23.97;;
63346;SDS011;49472;49.880;8.650;2023-01-30T06:55:42;35.50;;;26.40;;
63346;SDS011;49472;49.880;8.650;2023-01-30T06:58:08;33.97;;;24.40;;
63346;SDS011;49472;49.880;8.650;2023-01-30T07:00:35;33.90;;;25.97;;
63346;SDS011;49472;49.880;8.650;2023-01-30T07:03:03;31.83;;;24.37;;
63346;SDS011;49472;49.880;8.650;2023-01-30T07:05:28;29.97;;;23.77;;
63346;SDS011;49472;49.880;8.650;2023-01-30T07:07:54;26.97;;;20.47;;
63346;SDS011;49472;49.880;8.650;2023-01-30T07:10:19;38.87;;;25.40;;
63346;SDS011;49472;49.880;8.650;2023-01-30T07:12:45;36.90;;;25.20;;
63346;SDS011;49472;49.880;8.650;2023-01-30T07:15:11;32.90;;;24.50;;
63346;SDS011;49472;49.880;8.650;2023-01-30T07:17:36;25.50;;;22.27;;
63346;SDS011;49472;49.880;8.650;2023-01-30T07:20:04;28.17;;;21.77;;
63346;SDS011;49472;49.880;8.650;2023-01-30T07:22:29;30.93;;;23.37;;
63346;SDS011;49472;49.880;8.650;2023-01-30T07:24:55;27.93;;;20.83;;
63346;SDS011;49472;49.880;8.650;2023-01-30T07:27:20;31.40;;;22.97;;
63346;SDS011;49472;49.880;8.650;2023-01-30T07:29:45;27.20;;;21.67;;
63346;SDS011;49472;49.880;8.650;2023-01-30T07:32:14;31.40;;;24.10;;
63346;SDS011;49472;49.880;8.650;2023-01-30T07:34:40;30.67;;;22.20;;
63346;SDS011;49472;49.880;8.650;2023-01-30T07:37:05;26.50;;;21.63;;
63346;SDS011;49472;49.880;8.650;2023-01-30T07:39:31;28.97;;;21.93;;
63346;SDS011;49472;49.880;8.650;2023-01-30T07:41:58;26.97;;;21.37;;
63346;SDS011;49472;49.880;8.650;2023-01-30T07:44:24;25.67;;;20.33;;
63346;SDS011;49472;49.880;8.650;2023-01-30T07:46:49;28.30;;;22.30;;
63346;SDS011;49472;49.880;8.650;2023-01-30T07:49:14;30.70;;;21.90;;
63346;SDS011;49472;49.880;8.650;2023-01-30T07:51:40;32.70;;;23.97;;
63346;SDS011;49472;49.880;8.650;2023-01-30T07:54:05;26.63;;;20.20;;
63346;SDS011;49472;49.880;8.650;2023-01-30T07:56:30;24.77;;;21.50;;
63346;SDS011;49472;49.880;8.650;2023-01-30T07:58:56;25.73;;;21.00;;
63346;SDS011;49472;49.880;8.650;2023-01-30T08:01:21;28.77;;;22.10;;
63346;SDS011;49472;49.880;8.650;2023-01-30T08:03:47;28.43;;;22.43;;
63346;SDS011;49472;49.880;8.650;2023-01-30T08:06:13;32.30;;;22.27;;
63346;SDS011;49472;49.880;8.650;2023-01-30T08:08:39;29.10;;;22.63;;
63346;SDS011;49472;49.880;8.650;2023-01-30T08:11:05;22.00;;;19.30;;
63346;SDS011;49472;49.880;8.650;2023-01-30T08:13:30;21.40;;;18.93;;
63346;SDS011;49472;49.880;8.650;2023-01-30T08:15:58;25.07;;;20.53;;
63346;SDS011;49472;49.880;8.650;2023-01-30T08:18:24;28.90;;;21.73;;
63346;SDS011;49472;49.880;8.650;2023-01-30T08:20:49;22.53;;;19.93;;
63346;SDS011;49472;49.880;8.650;2023-01-30T08:23:14;28.90;;;20.90;;
63346;SDS011;49472;49.880;8.650;2023-01-30T08:25:40;27.63;;;20.83;;
63346;SDS011;49472;49.880;8.650;2023-01-30T08:28:05;22.57;;;17.77;;
63346;SDS011;49472;49.880;8.650;2023-01-30T08:30:30;24.80;;;20.60;;
63346;SDS011;49472;49.880;8.650;2023-01-30T08:32:56;23.77;;;21.10;;
63346;SDS011;49472;49.880;8.650;2023-01-30T08:35:21;24.57;;;20.53;;
63346;SDS011;49472;49.880;8.650;2023-01-30T08:37:47;31.37;;;22.97;;
63346;SDS011;49472;49.880;8.650;2023-01-30T08:40:12;24.07;;;19.00;;
63346;SDS011;49472;49.880;8.650;2023-01-30T08:42:38;26.10;;;18.33;;
63346;SDS011;49472;49.880;8.650;2023-01-30T08:45:03;28.63;;;21.17;;
63346;SDS011;49472;49.880;8.650;2023-01-30T08:47:29;25.27;;;19.20;;
63346;SDS011;49472;49.880;8.650;2023-01-30T08:49:55;25.07;;;20.07;;
63346;SDS011;49472;49.880;8.650;2023-01-30T08:52:20;26.77;;;20.50;;
63346;SDS011;49472;49.880;8.650;2023-01-30T08:54:46;18.13;;;16.37;;
63346;SDS011;49472;49.880;8.650;2023-01-30T08:57:12;23.30;;;20.00;;
63346;SDS011;49472;49.880;8.650;2023-01-30T08:59:38;28.77;;;20.30;;
63346;SDS011;49472;49.880;8.650;2023-01-30T09:02:04;24.43;;;19.30;;
63346;SDS011;49472;49.880;8.650;2023-01-30T09:04:29;26.33;;;19.80;;
63346;SDS011;49472;49.880;8.650;2023-01-30T09:06:54;25.97;;;20.40;;
63346;SDS011;49472;49.880;8.650;2023-01-30T09:09:20;23.53;;;19.50;;
63346;SDS011;49472;49.880;8.650;2023-01-30T09:11:45;26.53;;;19.73;;
63346;SDS011;49472;49.880;8.650;2023-01-30T09:14:12;25.53;;;20.43;;
63346;SDS011;49472;49.880;8.650;2023-01-30T09:16:38;28.03;;;21.77;;
63346;SDS011;49472;49.880;8.650;2023-01-30T09:19:03;20.23;;;18.13;;
63346;SDS011;49472;49.880;8.650;2023-01-30T09:21:29;28.00;;;21.07;;
63346;SDS011;49472;49.880;8.650;2023-01-30T09:23:56;27.53;;;20.90;;
63346;SDS011;49472;49.880;8.650;2023-01-30T09:26:21;27.03;;;20.73;;
63346;SDS011;49472;49.880;8.650;2023-01-30T09:28:46;26.30;;;21.40;;
63346;SDS011;49472;49.880;8.650;2023-01-30T09:31:12;24.07;;;20.30;;
63346;SDS011;49472;49.880;8.650;2023-01-30T09:33:37;31.60;;;22.23;;
63346;SDS011;49472;49.880;8.650;2023-01-30T09:36:02;23.63;;;18.70;;
63346;SDS011;49472;49.880;8.650;2023-01-30T09:38:28;27.77;;;21.77;;
63346;SDS011;49472;49.880;8.650;2023-01-30T09:59:56;24.47;;;20.40;;
63346;SDS011;49472;49.880;8.650;2023-01-30T10:04:57;22.67;;;18.90;;
63346;SDS011;49472;49.880;8.650;2023-01-30T10:07:27;21.60;;;19.13;;
63346;SDS011;49472;49.880;8.650;2023-01-30T10:17:41;19.80;;;17.70;;
63346;SDS011;49472;49.880;8.650;2023-01-30T10:26:00;16.27;;;14.77;;
63346;SDS011;49472;49.880;8.650;2023-01-30T10:28:34;17.20;;;15.63;;
63346;SDS011;49472;49.880;8.650;2023-01-30T10:31:14;14.47;;;13.37;;
63346;SDS011;49472;49.880;8.650;2023-01-30T10:33:46;15.73;;;14.23;;
63346;SDS011;49472;49.880;8.650;2023-01-30T10:36:41;15.63;;;14.33;;
63346;SDS011;49472;49.880;8.650;2023-01-30T10:39:27;15.33;;;14.03;;
63346;SDS011;49472;49.880;8.650;2023-01-30T10:44:33;15.30;;;13.90;;
63346;SDS011;49472;49.880;8.650;2023-01-30T10:49:49;16.10;;;14.70;;
63346;SDS011;49472;49.880;8.650;2023-01-30T11:02:57;15.63;;;14.53;;
63346;SDS011;49472;49.880;8.650;2023-01-30T11:05:24;16.93;;;15.53;;
63346;SDS011;49472;49.880;8.650;2023-01-30T11:07:55;16.70;;;15.40;;
63346;SDS011;49472;49.880;8.650;2023-01-30T11:10:23;15.27;;;14.07;;
63346;SDS011;49472;49.880;8.650;2023-01-30T11:13:35;16.67;;;15.30;;
63346;SDS011;49472;49.880;8.650;2023-01-30T11:15:41;14.70;;;13.70;;
63346;SDS011;49472;49.880;8.650;2023-01-30T11:18:08;13.73;;;12.53;;
63346;SDS011;49472;49.880;8.650;2023-01-30T11:20:38;15.67;;;14.37;;
63346;SDS011;49472;49.880;8.650;2023-01-30T11:23:06;15.00;;;13.87;;
63346;SDS011;49472;49.880;8.650;2023-01-30T11:25:45;15.90;;;14.57;;
63346;SDS011;49472;49.880;8.650;2023-01-30T11:28:13;16.37;;;15.07;;
63346;SDS011;49472;49.880;8.650;2023-01-30T11:30:41;15.37;;;14.23;;
63346;SDS011;49472;49.880;8.650;2023-01-30T11:33:11;14.47;;;13.40;;
63346;SDS011;49472;49.880;8.650;2023-01-30T11:35:43;17.07;;;15.70;;
63346;SDS011;49472;49.880;8.650;2023-01-30T11:40:46;17.87;;;15.97;;
63346;SDS011;49472;49.880;8.650;2023-01-30T11:43:12;16.83;;;15.23;;
63346;SDS011;49472;49.880;8.650;2023-01-30T11:45:39;16.47;;;15.07;;
63346;SDS011;49472;49.880;8.650;2023-01-30T11:48:13;14.77;;;13.63;;
63346;SDS011;49472;49.880;8.650;2023-01-30T11:50:43;15.57;;;14.47;;
63346;SDS011;49472;49.880;8.650;2023-01-30T11:55:58;14.17;;;13.17;;
63346;SDS011;49472;49.880;8.650;2023-01-30T11:58:31;14.90;;;13.50;;
63346;SDS011;49472;49.880;8.650;2023-01-30T12:00:59;14.40;;;13.40;;
63346;SDS011;49472;49.880;8.650;2023-01-30T12:03:26;15.70;;;14.60;;
63346;SDS011;49472;49.880;8.650;2023-01-30T12:05:53;16.20;;;14.87;;
63346;SDS011;49472;49.880;8.650;2023-01-30T12:10:52;15.80;;;14.60;;
63346;SDS011;49472;49.880;8.650;2023-01-30T12:13:25;15.17;;;14.10;;
63346;SDS011;49472;49.880;8.650;2023-01-30T12:16:05;15.30;;;14.10;;
63346;SDS011;49472;49.880;8.650;2023-01-30T12:18:53;14.47;;;13.47;;
63346;SDS011;49472;49.880;8.650;2023-01-30T12:21:30;14.73;;;13.67;;
63346;SDS011;49472;49.880;8.650;2023-01-30T12:26:42;15.07;;;13.93;;
63346;SDS011;49472;49.880;8.650;2023-01-30T12:29:22;14.17;;;13.17;;
63346;SDS011;49472;49.880;8.650;2023-01-30T12:34:19;14.10;;;13.20;;
63346;SDS011;49472;49.880;8.650;2023-01-30T12:42:43;13.33;;;12.53;;
63346;SDS011;49472;49.880;8.650;2023-01-30T12:45:24;13.67;;;12.83;;
63346;SDS011;49472;49.880;8.650;2023-01-30T12:50:44;13.10;;;12.30;;
63346;SDS011;49472;49.880;8.650;2023-01-30T12:56:14;14.13;;;13.23;;
63346;SDS011;49472;49.880;8.650;2023-01-30T12:58:50;13.43;;;12.63;;
63346;SDS011;49472;49.880;8.650;2023-01-30T13:02:04;13.50;;;12.43;;
63346;SDS011;49472;49.880;8.650;2023-01-30T13:04:56;14.07;;;13.17;;
63346;SDS011;49472;49.880;8.650;2023-01-30T13:07:34;13.77;;;12.87;;
63346;SDS011;49472;49.880;8.650;2023-01-30T13:10:24;13.73;;;12.83;;
63346;SDS011;49472;49.880;8.650;2023-01-30T13:13:16;13.83;;;12.90;;
63346;SDS011;49472;49.880;8.650;2023-01-30T13:21:36;13.13;;;12.33;;
63346;SDS011;49472;49.880;8.650;2023-01-30T13:24:18;12.83;;;12.10;;
63346;SDS011;49472;49.880;8.650;2023-01-30T13:27:11;13.30;;;11.90;;
63346;SDS011;49472;49.880;8.650;2023-01-30T13:29:41;14.43;;;13.17;;
63346;SDS011;49472;49.880;8.650;2023-01-30T13:32:20;14.00;;;13.00;;
63346;SDS011;49472;49.880;8.650;2023-01-30T13:34:51;13.30;;;12.53;;
63346;SDS011;49472;49.880;8.650;2023-01-30T13:37:20;12.97;;;12.23;;
63346;SDS011;49472;49.880;8.650;2023-01-30T13:39:47;12.70;;;12.00;;
63346;SDS011;49472;49.880;8.650;2023-01-30T13:42:23;13.70;;;12.80;;
63346;SDS011;49472;49.880;8.650;2023-01-30T13:45:00;14.50;;;13.50;;
63346;SDS011;49472;49.880;8.650;2023-01-30T13:52:53;16.30;;;15.00;;
63346;SDS011;49472;49.880;8.650;2023-01-30T13:55:37;16.13;;;14.50;;
63346;SDS011;49472;49.880;8.650;2023-01-30T14:00:52;15.27;;;14.20;;
63346;SDS011;49472;49.880;8.650;2023-01-30T14:08:26;15.27;;;14.17;;
63346;SDS011;49472;49.880;8.650;2023-01-30T14:14:03;14.57;;;13.40;;
63346;SDS011;49472;49.880;8.650;2023-01-30T14:16:46;13.63;;;12.63;;
63346;SDS011;49472;49.880;8.650;2023-01-30T14:21:54;15.10;;;13.80;;
63346;SDS011;49472;49.880;8.650;2023-01-30T14:24:21;15.53;;;14.17;;
63346;SDS011;49472;49.880;8.650;2023-01-30T14:34:44;17.60;;;15.00;;
63346;SDS011;49472;49.880;8.650;2023-01-30T14:40:25;15.27;;;13.67;;
63346;SDS011;49472;49.880;8.650;2023-01-30T14:51:08;11.57;;;10.43;;
63346;SDS011;49472;49.880;8.650;2023-01-30T14:53:34;16.60;;;10.80;;
63346;SDS011;49472;49.880;8.650;2023-01-30T14:56:01;12.57;;;10.87;;
63346;SDS011;49472;49.880;8.650;2023-01-30T14:58:28;12.70;;;11.40;;
63346;SDS011;49472;49.880;8.650;2023-01-30T15:00:59;13.93;;;10.20;;
63346;SDS011;49472;49.880;8.650;2023-01-30T15:03:25;13.10;;;11.70;;
63346;SDS011;49472;49.880;8.650;2023-01-30T15:05:51;16.20;;;11.33;;
63346;SDS011;49472;49.880;8.650;2023-01-30T15:08:21;15.10;;;11.27;;
63346;SDS011;49472;49.880;8.650;2023-01-30T15:10:59;14.47;;;11.97;;
63346;SDS011;49472;49.880;8.650;2023-01-30T15:22:15;20.27;;;13.97;;
63346;SDS011;49472;49.880;8.650;2023-01-30T15:32:20;26.47;;;12.57;;
63346;SDS011;49472;49.880;8.650;2023-01-30T15:34:49;14.50;;;13.13;;
63346;SDS011;49472;49.880;8.650;2023-01-30T15:37:46;14.93;;;13.33;;
63346;SDS011;49472;49.880;8.650;2023-01-30T15:51:21;14.37;;;12.63;;
63346;SDS011;49472;49.880;8.650;2023-01-30T15:53:52;14.00;;;12.47;;
63346;SDS011;49472;49.880;8.650;2023-01-30T15:56:26;14.00;;;12.50;;
63346;SDS011;49472;49.880;8.650;2023-01-30T15:58:55;15.70;;;13.00;;
63346;SDS011;49472;49.880;8.650;2023-01-30T16:01:22;15.13;;;12.87;;
63346;SDS011;49472;49.880;8.650;2023-01-30T16:03:48;15.60;;;11.73;;
63346;SDS011;49472;49.880;8.650;2023-01-30T16:06:22;13.97;;;11.87;;
63346;SDS011;49472;49.880;8.650;2023-01-30T16:08:59;14.33;;;12.83;;
63346;SDS011;49472;49.880;8.650;2023-01-30T16:14:13;25.40;;;13.50;;
63346;SDS011;49472;49.880;8.650;2023-01-30T16:19:23;29.47;;;12.47;;
63346;SDS011;49472;49.880;8.650;2023-01-30T16:21:55;13.03;;;11.87;;
63346;SDS011;49472;49.880;8.650;2023-01-30T16:24:30;12.53;;;11.63;;
63346;SDS011;49472;49.880;8.650;2023-01-30T16:26:58;22.77;;;12.80;;
63346;SDS011;49472;49.880;8.650;2023-01-30T16:29:27;21.80;;;14.20;;
63346;SDS011;49472;49.880;8.650;2023-01-30T16:31:55;19.77;;;12.80;;
63346;SDS011;49472;49.880;8.650;2023-01-30T16:37:41;15.93;;;14.33;;
63346;SDS011;49472;49.880;8.650;2023-01-30T16:40:00;21.13;;;16.30;;
63346;SDS011;49472;49.880;8.650;2023-01-30T16:42:33;28.27;;;17.37;;
63346;SDS011;49472;49.880;8.650;2023-01-30T16:47:35;29.70;;;18.50;;
63346;SDS011;49472;49.880;8.650;2023-01-30T16:50:01;23.27;;;18.10;;
63346;SDS011;49472;49.880;8.650;2023-01-30T16:52:34;20.87;;;16.03;;
63346;SDS011;49472;49.880;8.650;2023-01-30T16:55:05;26.10;;;19.40;;
63346;SDS011;49472;49.880;8.650;2023-01-30T16:57:42;21.20;;;18.47;;
63346;SDS011;49472;49.880;8.650;2023-01-30T17:00:31;49.20;;;44.03;;
63346;SDS011;49472;49.880;8.650;2023-01-30T17:03:04;23.73;;;18.90;;
63346;SDS011;49472;49.880;8.650;2023-01-30T17:05:38;28.37;;;25.03;;
63346;SDS011;49472;49.880;8.650;2023-01-30T17:08:35;25.67;;;20.30;;
63346;SDS011;49472;49.880;8.650;2023-01-30T17:11:00;16.47;;;14.70;;
63346;SDS011;49472;49.880;8.650;2023-01-30T17:13:36;18.07;;;14.63;;
63346;SDS011;49472;49.880;8.650;2023-01-30T17:18:53;27.93;;;25.10;;
63346;SDS011;49472;49.880;8.650;2023-01-30T17:21:22;15.00;;;13.80;;
63346;SDS011;49472;49.880;8.650;2023-01-30T17:23:57;19.27;;;17.30;;
63346;SDS011;49472;49.880;8.650;2023-01-30T17:26:25;16.43;;;14.97;;
63346;SDS011;49472;49.880;8.650;2023-01-30T17:28:50;24.37;;;20.30;;
63346;SDS011;49472;49.880;8.650;2023-01-30T17:31:16;21.93;;;19.63;;
63346;SDS011;49472;49.880;8.650;2023-01-30T17:33:42;15.40;;;14.00;;
63346;SDS011;49472;49.880;8.650;2023-01-30T17:36:14;17.33;;;15.53;;
63346;SDS011;49472;49.880;8.650;2023-01-30T17:38:44;28.97;;;20.80;;
63346;SDS011;49472;49.880;8.650;2023-01-30T17:41:13;21.83;;;15.60;;
63346;SDS011;49472;49.880;8.650;2023-01-30T17:43:42;30.20;;;22.70;;
63346;SDS011;49472;49.880;8.650;2023-01-30T17:46:08;24.03;;;20.67;;